createdAt,value
2018-02-10T00:00:23.714Z,2.43
2018-02-10T00:00:49.813Z,2.38
2018-02-10T00:01:15.911Z,2.36
2018-02-10T00:01:42.013Z,2.42
2018-02-10T00:02:08.115Z,2.39
2018-02-10T00:02:34.221Z,2.38
2018-02-10T00:03:00.348Z,2.36
2018-02-10T00:03:26.441Z,2.39
2018-02-10T00:03:52.547Z,2.42
2018-02-10T00:04:18.643Z,2.47
2018-02-10T00:04:44.740Z,2.51
2018-02-10T00:05:10.846Z,2.42
2018-02-10T00:05:36.941Z,2.46
2018-02-10T00:06:03.047Z,2.5
2018-02-10T00:06:29.148Z,2.44
2018-02-10T00:06:55.246Z,2.43
2018-02-10T00:07:21.349Z,2.43
2018-02-10T00:07:47.446Z,2.53
2018-02-10T00:08:13.548Z,2.56
2018-02-10T00:08:39.644Z,2.6
2018-02-10T00:09:05.752Z,2.61
2018-02-10T00:09:31.845Z,2.6
2018-02-10T00:09:57.949Z,2.65
2018-02-10T00:10:24.048Z,2.68
2018-02-10T00:10:50.169Z,2.67
2018-02-10T00:11:16.269Z,2.67
2018-02-10T00:11:42.409Z,2.72
2018-02-10T00:12:08.470Z,2.71
2018-02-10T00:12:34.572Z,2.75
2018-02-10T00:13:00.669Z,2.72
2018-02-10T00:13:26.769Z,2.72
2018-02-10T00:13:52.870Z,2.85
2018-02-10T00:14:18.970Z,2.9
2018-02-10T00:14:45.074Z,2.86
2018-02-10T00:15:11.177Z,2.95
2018-02-10T00:15:37.275Z,2.95
2018-02-10T00:16:03.373Z,2.97
2018-02-10T00:16:29.479Z,2.8
2018-02-10T00:16:55.581Z,2.85
2018-02-10T00:17:21.674Z,2.8
2018-02-10T00:17:47.777Z,2.89
2018-02-10T00:18:13.873Z,2.87
2018-02-10T00:18:39.965Z,2.85
2018-02-10T00:19:06.069Z,2.89
2018-02-10T00:19:32.174Z,2.87
2018-02-10T00:19:58.282Z,2.83
2018-02-10T00:20:24.375Z,2.95
2018-02-10T00:20:50.490Z,2.87
2018-02-10T00:21:16.591Z,2.85
2018-02-10T00:21:42.688Z,2.82
2018-02-10T00:22:08.793Z,2.86
2018-02-10T00:22:34.890Z,2.9
2018-02-10T00:23:00.993Z,2.86
2018-02-10T00:23:27.088Z,2.9
2018-02-10T00:23:53.186Z,2.77
2018-02-10T00:24:19.287Z,2.82
2018-02-10T00:24:45.382Z,2.83
2018-02-10T00:25:11.524Z,2.75
2018-02-10T00:25:37.625Z,2.83
2018-02-10T00:26:03.729Z,2.85
2018-02-10T00:26:29.849Z,2.89
2018-02-10T00:26:55.962Z,2.86
2018-02-10T00:27:22.061Z,2.86
2018-02-10T00:27:48.162Z,2.86
2018-02-10T00:28:14.260Z,2.89
2018-02-10T00:28:40.365Z,2.82
2018-02-10T00:29:06.466Z,2.93
2018-02-10T00:29:32.560Z,2.86
2018-02-10T00:29:58.664Z,2.93
2018-02-10T00:30:24.765Z,2.9
2018-02-10T00:30:50.862Z,2.92
2018-02-10T00:31:16.981Z,2.87
2018-02-10T00:31:43.079Z,2.86
2018-02-10T00:32:09.187Z,2.89
2018-02-10T00:32:35.285Z,2.9
2018-02-10T00:33:01.384Z,2.9
2018-02-10T00:33:27.481Z,2.85
2018-02-10T00:33:53.585Z,2.87
2018-02-10T00:34:19.692Z,2.89
2018-02-10T00:34:45.787Z,2.95
2018-02-10T00:35:11.893Z,2.97
2018-02-10T00:35:37.992Z,3.01
2018-02-10T00:36:04.091Z,3.08
2018-02-10T00:36:30.196Z,3.11
2018-02-10T00:36:56.293Z,3.07
2018-02-10T00:37:22.398Z,3.05
2018-02-10T00:37:48.509Z,3.07
2018-02-10T00:38:14.612Z,3.04
2018-02-10T00:38:40.727Z,3
2018-02-10T00:39:06.823Z,3.04
2018-02-10T00:39:32.925Z,3.13
2018-02-10T00:39:59.034Z,3.08
2018-02-10T00:40:25.135Z,3.1
2018-02-10T00:40:51.232Z,3.04
2018-02-10T00:41:17.332Z,3.05
2018-02-10T00:41:43.539Z,3.07
2018-02-10T00:42:10.275Z,3.03
2018-02-10T00:42:36.971Z,3.11
2018-02-10T00:43:03.197Z,3.1
2018-02-10T00:43:29.382Z,3.08
2018-02-10T00:43:55.516Z,3
2018-02-10T00:44:21.612Z,3.01
2018-02-10T00:44:48.632Z,3.01
2018-02-10T00:45:14.874Z,3.04
2018-02-10T00:45:41.858Z,2.97
2018-02-10T00:46:08.026Z,2.93
2018-02-10T00:46:34.214Z,2.97
2018-02-10T00:47:00.751Z,2.82
2018-02-10T00:47:27.269Z,2.86
2018-02-10T00:47:53.503Z,2.97
2018-02-10T00:48:19.600Z,2.95
2018-02-10T00:48:45.744Z,2.97
2018-02-10T00:49:12.391Z,2.85
2018-02-10T00:49:38.866Z,2.97
2018-02-10T00:50:05.311Z,2.87
2018-02-10T00:50:31.496Z,2.97
2018-02-10T00:50:57.911Z,2.89
2018-02-10T00:51:24.322Z,2.89
2018-02-10T00:51:50.727Z,2.86
2018-02-10T00:52:17.044Z,2.9
2018-02-10T00:52:43.155Z,2.85
2018-02-10T00:53:10.023Z,2.83
2018-02-10T00:53:36.339Z,2.93
2018-02-10T00:54:02.738Z,2.85
2018-02-10T00:54:28.875Z,2.87
2018-02-10T00:54:55.198Z,2.92
2018-02-10T00:55:21.303Z,2.93
2018-02-10T00:55:47.821Z,2.85
2018-02-10T00:56:13.897Z,2.85
2018-02-10T00:56:40.418Z,2.85
2018-02-10T00:57:06.781Z,2.85
2018-02-10T00:57:33.690Z,2.87
2018-02-10T00:57:59.848Z,2.86
2018-02-10T00:58:26.070Z,2.83
2018-02-10T00:58:52.143Z,2.9
2018-02-10T00:59:18.335Z,2.85
2018-02-10T00:59:44.658Z,2.85
2018-02-10T01:00:11.053Z,2.95
2018-02-10T01:00:37.519Z,2.93
2018-02-10T01:01:03.561Z,2.93
2018-02-10T01:01:29.923Z,2.98
2018-02-10T01:01:56.184Z,3.01
2018-02-10T01:02:22.512Z,3.01
2018-02-10T01:02:48.618Z,3.04
2018-02-10T01:03:14.772Z,3.04
2018-02-10T01:03:40.898Z,3.04
2018-02-10T01:04:07.500Z,3.08
2018-02-10T01:04:33.594Z,3.03
2018-02-10T01:04:59.812Z,3.03
2018-02-10T01:05:25.981Z,2.97
2018-02-10T01:05:52.318Z,2.9
2018-02-10T01:06:18.356Z,2.93
2018-02-10T01:06:44.707Z,3.04
2018-02-10T01:07:10.945Z,2.97
2018-02-10T01:07:37.023Z,3.01
2018-02-10T01:08:03.465Z,2.98
2018-02-10T01:08:29.649Z,2.98
2018-02-10T01:08:55.934Z,2.97
2018-02-10T01:09:22.452Z,2.86
2018-02-10T01:09:49.022Z,2.85
2018-02-10T01:10:15.259Z,2.95
2018-02-10T01:10:41.460Z,2.86
2018-02-10T01:11:07.562Z,2.85
2018-02-10T01:11:33.779Z,2.97
2018-02-10T01:12:00.157Z,3.01
2018-02-10T01:12:26.225Z,3.01
2018-02-10T01:12:52.654Z,2.93
2018-02-10T01:13:18.776Z,2.87
2018-02-10T01:13:45.094Z,2.9
2018-02-10T01:14:11.590Z,2.86
2018-02-10T01:14:37.696Z,2.95
2018-02-10T01:15:03.849Z,2.86
2018-02-10T01:15:30.071Z,3
2018-02-10T01:15:56.176Z,3.08
2018-02-10T01:16:22.363Z,3.05
2018-02-10T01:16:48.478Z,2.8
2018-02-10T01:17:14.689Z,3.05
2018-02-10T01:17:40.852Z,2.98
2018-02-10T01:18:07.007Z,3.01
2018-02-10T01:18:33.151Z,3.01
2018-02-10T01:18:59.430Z,3.03
2018-02-10T01:19:25.590Z,3.1
2018-02-10T01:19:51.853Z,3.07
2018-02-10T01:20:18.040Z,2.86
2018-02-10T01:20:44.152Z,2.97
2018-02-10T01:21:10.337Z,2.92
2018-02-10T01:21:36.696Z,2.86
2018-02-10T01:22:03.237Z,2.95
2018-02-10T01:22:29.565Z,2.93
2018-02-10T01:22:55.770Z,3.01
2018-02-10T01:23:21.870Z,3.05
2018-02-10T01:23:48.004Z,3.07
2018-02-10T01:24:14.140Z,3.07
2018-02-10T01:24:40.706Z,3.11
2018-02-10T01:25:07.027Z,3
2018-02-10T01:25:33.086Z,3.04
2018-02-10T01:25:59.190Z,3.11
2018-02-10T01:26:25.320Z,3.13
2018-02-10T01:26:52.208Z,3.16
2018-02-10T01:27:18.753Z,3.21
2018-02-10T01:27:45.017Z,3.19
2018-02-10T01:28:11.338Z,3.21
2018-02-10T01:28:37.761Z,3.08
2018-02-10T01:29:04.184Z,2.97
2018-02-10T01:29:30.310Z,3.03
2018-02-10T01:29:56.449Z,3.04
2018-02-10T01:30:22.539Z,3.1
2018-02-10T01:30:48.654Z,3.07
2018-02-10T01:31:14.785Z,3.05
2018-02-10T01:31:40.961Z,3.04
2018-02-10T01:32:07.034Z,3.03
2018-02-10T01:32:33.157Z,3.11
2018-02-10T01:32:59.254Z,3.1
2018-02-10T01:33:25.357Z,3.14
2018-02-10T01:33:51.464Z,3.14
2018-02-10T01:34:17.565Z,3.07
2018-02-10T01:34:43.660Z,3.01
2018-02-10T01:35:09.765Z,2.95
2018-02-10T01:35:35.861Z,2.95
2018-02-10T01:36:01.961Z,2.93
2018-02-10T01:36:28.063Z,2.98
2018-02-10T01:36:54.158Z,3.08
2018-02-10T01:37:20.262Z,3.04
2018-02-10T01:37:46.363Z,3.14
2018-02-10T01:38:12.462Z,3.08
2018-02-10T01:38:38.563Z,3.14
2018-02-10T01:39:04.668Z,3.07
2018-02-10T01:39:30.768Z,3.07
2018-02-10T01:39:56.869Z,3.11
2018-02-10T01:40:22.986Z,3.1
2018-02-10T01:40:49.082Z,2.95
2018-02-10T01:41:15.190Z,2.98
2018-02-10T01:41:41.287Z,3.07
2018-02-10T01:42:07.394Z,3.1
2018-02-10T01:42:33.487Z,3.1
2018-02-10T01:42:59.589Z,3.08
2018-02-10T01:43:25.688Z,3.16
2018-02-10T01:43:51.807Z,3.16
2018-02-10T01:44:17.903Z,3.1
2018-02-10T01:44:44.001Z,3.23
2018-02-10T01:45:10.106Z,3.21
2018-02-10T01:45:36.203Z,3.16
2018-02-10T01:46:02.299Z,3.11
2018-02-10T01:46:28.407Z,3.13
2018-02-10T01:46:54.501Z,3.16
2018-02-10T01:47:20.608Z,3.14
2018-02-10T01:47:46.702Z,3.21
2018-02-10T01:48:12.841Z,3.1
2018-02-10T01:48:38.903Z,3.11
2018-02-10T01:49:05.008Z,3.07
2018-02-10T01:49:31.105Z,3.11
2018-02-10T01:49:57.209Z,3.19
2018-02-10T01:50:23.315Z,3.21
2018-02-10T01:50:49.409Z,3.03
2018-02-10T01:51:15.514Z,3.21
2018-02-10T01:51:41.611Z,3.23
2018-02-10T01:52:07.716Z,3.23
2018-02-10T01:52:33.814Z,3.26
2018-02-10T01:52:59.914Z,3.22
2018-02-10T01:53:26.009Z,3.26
2018-02-10T01:53:52.111Z,3.26
2018-02-10T01:54:18.207Z,3.19
2018-02-10T01:54:44.303Z,3.22
2018-02-10T01:55:10.408Z,3.28
2018-02-10T01:55:36.509Z,3.19
2018-02-10T01:56:02.688Z,3.22
2018-02-10T01:56:28.774Z,3.18
2018-02-10T01:56:54.882Z,3.19
2018-02-10T01:57:20.979Z,3.19
2018-02-10T01:57:47.083Z,3.25
2018-02-10T01:58:13.180Z,3.21
2018-02-10T01:58:39.278Z,3.23
2018-02-10T01:59:05.418Z,3.19
2018-02-10T01:59:31.519Z,3.21
2018-02-10T01:59:57.644Z,3.25
2018-02-10T02:00:23.769Z,3.19
2018-02-10T02:00:49.871Z,3.21
2018-02-10T02:01:15.998Z,3.25
2018-02-10T02:01:42.081Z,3.08
2018-02-10T02:02:08.175Z,3.11
2018-02-10T02:02:34.273Z,3.1
2018-02-10T02:03:00.380Z,3.14
2018-02-10T02:03:26.476Z,3.1
2018-02-10T02:03:52.580Z,3.05
2018-02-10T02:04:18.699Z,3.03
2018-02-10T02:04:44.814Z,3.05
2018-02-10T02:05:10.907Z,3.07
2018-02-10T02:05:37.011Z,3.03
2018-02-10T02:06:03.117Z,3.16
2018-02-10T02:06:29.220Z,3.19
2018-02-10T02:06:55.337Z,3.28
2018-02-10T02:07:21.428Z,3.23
2018-02-10T02:07:47.535Z,3.21
2018-02-10T02:08:13.628Z,3.21
2018-02-10T02:08:39.729Z,3.22
2018-02-10T02:09:05.832Z,3.25
2018-02-10T02:09:31.926Z,3.22
2018-02-10T02:09:58.026Z,3.25
2018-02-10T02:10:24.144Z,3.22
2018-02-10T02:10:50.249Z,3.22
2018-02-10T02:11:16.359Z,3.23
2018-02-10T02:11:42.475Z,3.26
2018-02-10T02:12:08.574Z,3.23
2018-02-10T02:12:34.672Z,3.28
2018-02-10T02:13:00.774Z,3.23
2018-02-10T02:13:26.892Z,3.21
2018-02-10T02:13:52.989Z,3.21
2018-02-10T02:14:19.093Z,3.29
2018-02-10T02:14:45.192Z,3.22
2018-02-10T02:15:11.290Z,3.37
2018-02-10T02:15:37.389Z,3.31
2018-02-10T02:16:03.494Z,3.41
2018-02-10T02:16:29.615Z,3.28
2018-02-10T02:16:55.760Z,3.28
2018-02-10T02:17:21.866Z,3.26
2018-02-10T02:17:48.042Z,3.34
2018-02-10T02:18:14.120Z,3.36
2018-02-10T02:18:40.223Z,3.44
2018-02-10T02:19:06.327Z,3.42
2018-02-10T02:19:32.446Z,3.32
2018-02-10T02:19:58.548Z,3.41
2018-02-10T02:20:24.650Z,3.37
2018-02-10T02:20:50.742Z,3.41
2018-02-10T02:21:16.844Z,3.45
2018-02-10T02:21:42.945Z,3.48
2018-02-10T02:22:09.048Z,3.55
2018-02-10T02:22:35.151Z,3.53
2018-02-10T02:23:01.247Z,3.48
2018-02-10T02:23:27.377Z,3.55
2018-02-10T02:23:53.470Z,3.5
2018-02-10T02:24:19.566Z,3.6
2018-02-10T02:24:45.665Z,3.51
2018-02-10T02:25:11.770Z,3.62
2018-02-10T02:25:37.873Z,3.44
2018-02-10T02:26:03.975Z,3.42
2018-02-10T02:26:30.070Z,3.44
2018-02-10T02:26:56.173Z,3.47
2018-02-10T02:27:22.274Z,3.41
2018-02-10T02:27:48.377Z,3.34
2018-02-10T02:28:14.478Z,3.41
2018-02-10T02:28:40.572Z,3.37
2018-02-10T02:29:06.677Z,3.31
2018-02-10T02:29:32.773Z,3.41
2018-02-10T02:29:58.880Z,3.44
2018-02-10T02:30:24.979Z,3.36
2018-02-10T02:30:51.079Z,3.41
2018-02-10T02:31:17.176Z,3.34
2018-02-10T02:31:43.284Z,3.31
2018-02-10T02:32:09.387Z,3.26
2018-02-10T02:32:35.503Z,3.4
2018-02-10T02:33:01.599Z,3.42
2018-02-10T02:33:27.703Z,3.37
2018-02-10T02:33:53.800Z,3.36
2018-02-10T02:34:19.899Z,3.41
2018-02-10T02:34:45.999Z,3.42
2018-02-10T02:35:12.104Z,3.47
2018-02-10T02:35:38.202Z,3.53
2018-02-10T02:36:04.297Z,3.47
2018-02-10T02:36:30.400Z,3.56
2018-02-10T02:36:56.494Z,3.5
2018-02-10T02:37:22.594Z,3.56
2018-02-10T02:37:48.694Z,3.42
2018-02-10T02:38:14.797Z,3.47
2018-02-10T02:38:40.906Z,3.48
2018-02-10T02:39:07.023Z,3.47
2018-02-10T02:39:33.127Z,3.47
2018-02-10T02:39:59.221Z,3.53
2018-02-10T02:40:25.321Z,3.53
2018-02-10T02:40:51.421Z,3.44
2018-02-10T02:41:17.526Z,3.42
2018-02-10T02:41:43.622Z,3.56
2018-02-10T02:42:09.743Z,3.55
2018-02-10T02:42:35.834Z,3.48
2018-02-10T02:43:01.937Z,3.44
2018-02-10T02:43:28.029Z,3.41
2018-02-10T02:43:54.147Z,3.48
2018-02-10T02:44:20.243Z,3.48
2018-02-10T02:44:46.352Z,3.51
2018-02-10T02:45:12.465Z,3.59
2018-02-10T02:45:38.563Z,3.56
2018-02-10T02:46:04.668Z,3.66
2018-02-10T02:46:30.782Z,3.73
2018-02-10T02:46:56.882Z,3.66
2018-02-10T02:47:22.981Z,3.7
2018-02-10T02:47:49.077Z,3.7
2018-02-10T02:48:15.176Z,3.7
2018-02-10T02:48:41.272Z,3.63
2018-02-10T02:49:07.374Z,3.62
2018-02-10T02:49:33.473Z,3.62
2018-02-10T02:49:59.564Z,3.58
2018-02-10T02:50:25.672Z,3.51
2018-02-10T02:50:51.777Z,3.59
2018-02-10T02:51:17.868Z,3.6
2018-02-10T02:51:43.973Z,3.66
2018-02-10T02:52:10.066Z,3.73
2018-02-10T02:52:36.168Z,3.65
2018-02-10T02:53:02.271Z,3.62
2018-02-10T02:53:28.387Z,3.69
2018-02-10T02:53:54.490Z,3.63
2018-02-10T02:54:20.584Z,3.56
2018-02-10T02:54:46.681Z,3.69
2018-02-10T02:55:12.785Z,3.6
2018-02-10T02:55:38.883Z,3.74
2018-02-10T02:56:04.985Z,3.6
2018-02-10T02:56:31.084Z,3.59
2018-02-10T02:56:57.279Z,3.68
2018-02-10T02:57:23.436Z,3.68
2018-02-10T02:57:49.510Z,3.62
2018-02-10T02:58:15.605Z,3.63
2018-02-10T02:58:41.709Z,3.74
2018-02-10T02:59:07.828Z,3.73
2018-02-10T02:59:33.923Z,3.62
2018-02-10T03:00:00.028Z,3.77
2018-02-10T03:00:26.140Z,3.81
2018-02-10T03:00:52.243Z,3.7
2018-02-10T03:01:18.342Z,3.73
2018-02-10T03:01:44.452Z,3.5
2018-02-10T03:02:10.550Z,3.47
2018-02-10T03:02:36.648Z,3.53
2018-02-10T03:03:02.753Z,3.37
2018-02-10T03:03:28.869Z,3.37
2018-02-10T03:03:55.049Z,3.45
2018-02-10T03:04:21.150Z,3.44
2018-02-10T03:04:47.247Z,3.36
2018-02-10T03:05:13.342Z,3.44
2018-02-10T03:05:39.450Z,3.48
2018-02-10T03:06:05.549Z,3.51
2018-02-10T03:06:31.753Z,3.59
2018-02-10T03:06:57.871Z,3.55
2018-02-10T03:07:23.975Z,3.53
2018-02-10T03:07:50.169Z,3.55
2018-02-10T03:08:16.297Z,3.48
2018-02-10T03:08:42.464Z,3.36
2018-02-10T03:09:08.561Z,3.55
2018-02-10T03:09:34.670Z,3.55
2018-02-10T03:10:00.762Z,3.56
2018-02-10T03:10:27.330Z,3.55
2018-02-10T03:10:53.442Z,3.51
2018-02-10T03:11:19.531Z,3.51
2018-02-10T03:11:45.668Z,3.44
2018-02-10T03:12:11.764Z,3.42
2018-02-10T03:12:37.875Z,3.4
2018-02-10T03:13:04.003Z,3.53
2018-02-10T03:13:30.103Z,3.48
2018-02-10T03:13:56.225Z,3.53
2018-02-10T03:14:22.333Z,3.55
2018-02-10T03:14:48.437Z,3.51
2018-02-10T03:15:14.552Z,3.55
2018-02-10T03:15:40.696Z,3.56
2018-02-10T03:16:06.822Z,3.62
2018-02-10T03:16:32.915Z,3.66
2018-02-10T03:16:59.026Z,3.63
2018-02-10T03:17:25.126Z,3.66
2018-02-10T03:17:51.237Z,3.77
2018-02-10T03:18:17.337Z,3.74
2018-02-10T03:18:43.456Z,3.73
2018-02-10T03:19:09.590Z,3.74
2018-02-10T03:19:35.690Z,3.76
2018-02-10T03:20:01.791Z,3.76
2018-02-10T03:20:27.913Z,3.74
2018-02-10T03:20:54.054Z,3.68
2018-02-10T03:21:20.157Z,3.56
2018-02-10T03:21:46.288Z,3.69
2018-02-10T03:22:12.387Z,3.65
2018-02-10T03:22:38.482Z,3.65
2018-02-10T03:23:04.586Z,3.68
2018-02-10T03:23:30.689Z,3.68
2018-02-10T03:23:56.801Z,3.8
2018-02-10T03:24:22.898Z,3.69
2018-02-10T03:24:48.992Z,3.65
2018-02-10T03:25:15.094Z,3.55
2018-02-10T03:25:41.211Z,3.48
2018-02-10T03:26:07.326Z,3.51
2018-02-10T03:26:33.447Z,3.51
2018-02-10T03:26:59.558Z,3.5
2018-02-10T03:27:25.677Z,3.55
2018-02-10T03:27:51.770Z,3.55
2018-02-10T03:28:17.868Z,3.47
2018-02-10T03:28:43.974Z,3.48
2018-02-10T03:29:10.067Z,3.51
2018-02-10T03:29:36.169Z,3.58
2018-02-10T03:30:02.272Z,3.65
2018-02-10T03:30:28.367Z,3.63
2018-02-10T03:30:54.476Z,3.69
2018-02-10T03:31:20.568Z,3.63
2018-02-10T03:31:46.670Z,3.62
2018-02-10T03:32:12.769Z,3.68
2018-02-10T03:32:38.883Z,3.68
2018-02-10T03:33:04.988Z,3.62
2018-02-10T03:33:31.084Z,3.65
2018-02-10T03:33:57.191Z,3.76
2018-02-10T03:34:23.288Z,3.66
2018-02-10T03:34:49.384Z,3.74
2018-02-10T03:35:15.482Z,3.68
2018-02-10T03:35:41.578Z,3.65
2018-02-10T03:36:07.685Z,3.68
2018-02-10T03:36:33.781Z,3.81
2018-02-10T03:36:59.884Z,3.77
2018-02-10T03:37:26.008Z,3.76
2018-02-10T03:37:52.097Z,3.65
2018-02-10T03:38:18.199Z,3.65
2018-02-10T03:38:44.296Z,3.68
2018-02-10T03:39:10.400Z,3.63
2018-02-10T03:39:36.495Z,3.59
2018-02-10T03:40:02.595Z,3.66
2018-02-10T03:40:28.695Z,3.78
2018-02-10T03:40:54.791Z,3.73
2018-02-10T03:41:20.911Z,3.66
2018-02-10T03:41:47.007Z,3.68
2018-02-10T03:42:13.113Z,3.78
2018-02-10T03:42:39.213Z,3.63
2018-02-10T03:43:05.308Z,3.63
2018-02-10T03:43:31.413Z,3.66
2018-02-10T03:43:57.526Z,3.56
2018-02-10T03:44:23.631Z,3.55
2018-02-10T03:44:49.741Z,3.62
2018-02-10T03:45:15.844Z,3.55
2018-02-10T03:45:41.940Z,3.55
2018-02-10T03:46:08.037Z,3.55
2018-02-10T03:46:34.137Z,3.51
2018-02-10T03:47:00.237Z,3.58
2018-02-10T03:47:26.335Z,3.59
2018-02-10T03:47:52.432Z,3.56
2018-02-10T03:48:18.541Z,3.55
2018-02-10T03:48:44.635Z,3.5
2018-02-10T03:49:10.738Z,3.48
2018-02-10T03:49:36.875Z,3.63
2018-02-10T03:50:02.930Z,3.68
2018-02-10T03:50:29.059Z,3.74
2018-02-10T03:50:55.130Z,3.68
2018-02-10T03:51:21.228Z,3.62
2018-02-10T03:51:47.332Z,3.78
2018-02-10T03:52:13.431Z,3.73
2018-02-10T03:52:39.529Z,3.81
2018-02-10T03:53:05.630Z,3.66
2018-02-10T03:53:31.727Z,3.74
2018-02-10T03:53:57.824Z,3.83
2018-02-10T03:54:23.921Z,3.77
2018-02-10T03:54:50.017Z,3.65
2018-02-10T03:55:16.117Z,3.58
2018-02-10T03:55:42.214Z,3.55
2018-02-10T03:56:08.316Z,3.65
2018-02-10T03:56:34.415Z,3.55
2018-02-10T03:57:00.518Z,3.62
2018-02-10T03:57:26.620Z,3.58
2018-02-10T03:57:52.720Z,3.63
2018-02-10T03:58:18.821Z,3.6
2018-02-10T03:58:44.920Z,3.7
2018-02-10T03:59:11.022Z,3.66
2018-02-10T03:59:37.118Z,3.62
2018-02-10T04:00:03.219Z,3.55
2018-02-10T04:00:29.318Z,3.53
2018-02-10T04:00:55.414Z,3.59
2018-02-10T04:01:21.536Z,3.48
2018-02-10T04:01:47.635Z,3.44
2018-02-10T04:02:13.752Z,3.37
2018-02-10T04:02:39.868Z,3.45
2018-02-10T04:03:05.962Z,3.51
2018-02-10T04:03:32.079Z,3.55
2018-02-10T04:03:58.174Z,3.66
2018-02-10T04:04:24.273Z,3.6
2018-02-10T04:04:50.395Z,3.66
2018-02-10T04:05:16.491Z,3.76
2018-02-10T04:05:42.595Z,3.68
2018-02-10T04:06:08.695Z,3.77
2018-02-10T04:06:34.792Z,3.81
2018-02-10T04:07:00.886Z,3.8
2018-02-10T04:07:26.991Z,3.73
2018-02-10T04:07:53.087Z,3.76
2018-02-10T04:08:19.187Z,3.83
2018-02-10T04:08:45.292Z,3.87
2018-02-10T04:09:11.389Z,3.88
2018-02-10T04:09:37.486Z,3.8
2018-02-10T04:10:03.589Z,3.81
2018-02-10T04:10:29.687Z,3.6
2018-02-10T04:10:55.788Z,3.86
2018-02-10T04:11:21.893Z,3.81
2018-02-10T04:11:47.991Z,3.74
2018-02-10T04:12:14.096Z,3.8
2018-02-10T04:12:40.191Z,3.81
2018-02-10T04:13:06.289Z,3.86
2018-02-10T04:13:32.383Z,3.74
2018-02-10T04:13:58.483Z,3.78
2018-02-10T04:14:24.604Z,3.92
2018-02-10T04:14:50.700Z,3.92
2018-02-10T04:15:16.848Z,3.87
2018-02-10T04:15:42.918Z,3.88
2018-02-10T04:16:09.021Z,3.76
2018-02-10T04:16:35.120Z,3.87
2018-02-10T04:17:01.217Z,3.84
2018-02-10T04:17:27.316Z,3.77
2018-02-10T04:17:53.414Z,3.78
2018-02-10T04:18:19.519Z,3.68
2018-02-10T04:18:45.626Z,3.73
2018-02-10T04:19:11.718Z,3.66
2018-02-10T04:19:37.822Z,3.73
2018-02-10T04:20:03.913Z,3.77
2018-02-10T04:20:30.012Z,3.63
2018-02-10T04:20:56.108Z,3.74
2018-02-10T04:21:22.214Z,3.73
2018-02-10T04:21:48.332Z,3.76
2018-02-10T04:22:14.450Z,3.77
2018-02-10T04:22:40.558Z,3.68
2018-02-10T04:23:06.656Z,3.66
2018-02-10T04:23:32.751Z,3.78
2018-02-10T04:23:58.849Z,3.68
2018-02-10T04:24:24.949Z,3.69
2018-02-10T04:24:51.060Z,3.78
2018-02-10T04:25:17.162Z,3.69
2018-02-10T04:25:43.262Z,3.8
2018-02-10T04:26:09.359Z,3.6
2018-02-10T04:26:35.481Z,3.68
2018-02-10T04:27:01.583Z,3.74
2018-02-10T04:27:27.681Z,3.65
2018-02-10T04:27:53.779Z,3.68
2018-02-10T04:28:19.884Z,3.66
2018-02-10T04:28:45.986Z,3.65
2018-02-10T04:29:12.086Z,3.65
2018-02-10T04:29:38.204Z,3.62
2018-02-10T04:30:04.307Z,3.7
2018-02-10T04:30:30.397Z,3.76
2018-02-10T04:30:56.494Z,3.73
2018-02-10T04:31:22.591Z,3.8
2018-02-10T04:31:48.691Z,3.83
2018-02-10T04:32:14.790Z,3.77
2018-02-10T04:32:40.895Z,3.74
2018-02-10T04:33:06.993Z,3.76
2018-02-10T04:33:33.088Z,3.8
2018-02-10T04:33:59.196Z,3.86
2018-02-10T04:34:25.289Z,3.87
2018-02-10T04:34:51.400Z,3.88
2018-02-10T04:35:17.502Z,3.76
2018-02-10T04:35:43.597Z,3.91
2018-02-10T04:36:09.701Z,3.96
2018-02-10T04:36:35.802Z,3.96
2018-02-10T04:37:01.896Z,3.77
2018-02-10T04:37:27.999Z,3.65
2018-02-10T04:37:54.095Z,3.81
2018-02-10T04:38:20.198Z,3.78
2018-02-10T04:38:46.292Z,3.87
2018-02-10T04:39:12.390Z,3.94
2018-02-10T04:39:38.495Z,3.91
2018-02-10T04:40:04.626Z,3.96
2018-02-10T04:40:30.723Z,3.92
2018-02-10T04:40:56.823Z,3.96
2018-02-10T04:41:22.929Z,3.94
2018-02-10T04:41:49.025Z,3.87
2018-02-10T04:42:15.129Z,3.78
2018-02-10T04:42:41.224Z,3.8
2018-02-10T04:43:07.331Z,3.68
2018-02-10T04:43:33.429Z,3.76
2018-02-10T04:43:59.531Z,3.73
2018-02-10T04:44:25.624Z,3.83
2018-02-10T04:44:51.724Z,3.77
2018-02-10T04:45:17.823Z,3.8
2018-02-10T04:45:43.929Z,3.76
2018-02-10T04:46:10.025Z,3.83
2018-02-10T04:46:36.123Z,3.8
2018-02-10T04:47:02.221Z,3.87
2018-02-10T04:47:28.321Z,3.84
2018-02-10T04:47:54.427Z,3.83
2018-02-10T04:48:20.523Z,3.8
2018-02-10T04:48:46.616Z,3.84
2018-02-10T04:49:12.721Z,3.84
2018-02-10T04:49:38.815Z,3.84
2018-02-10T04:50:04.920Z,3.86
2018-02-10T04:50:31.015Z,3.91
2018-02-10T04:50:57.120Z,3.94
2018-02-10T04:51:23.219Z,3.96
2018-02-10T04:51:49.321Z,4.01
2018-02-10T04:52:15.418Z,3.98
2018-02-10T04:52:41.527Z,4.01
2018-02-10T04:53:07.645Z,3.95
2018-02-10T04:53:33.744Z,3.98
2018-02-10T04:53:59.848Z,3.95
2018-02-10T04:54:25.944Z,3.91
2018-02-10T04:54:52.043Z,3.91
2018-02-10T04:55:18.146Z,4.01
2018-02-10T04:55:44.242Z,4.01
2018-02-10T04:56:10.344Z,3.99
2018-02-10T04:56:36.439Z,3.91
2018-02-10T04:57:02.541Z,3.94
2018-02-10T04:57:28.644Z,3.96
2018-02-10T04:57:54.738Z,3.98
2018-02-10T04:58:20.837Z,3.94
2018-02-10T04:58:46.942Z,3.99
2018-02-10T04:59:13.043Z,3.92
2018-02-10T04:59:39.139Z,3.78
2018-02-10T05:00:05.263Z,3.87
2018-02-10T05:00:31.361Z,3.86
2018-02-10T05:00:57.468Z,3.77
2018-02-10T05:01:23.555Z,3.92
2018-02-10T05:01:49.671Z,3.84
2018-02-10T05:02:15.774Z,3.81
2018-02-10T05:02:41.878Z,3.8
2018-02-10T05:03:07.974Z,3.87
2018-02-10T05:03:34.075Z,3.69
2018-02-10T05:04:00.175Z,3.7
2018-02-10T05:04:26.280Z,3.81
2018-02-10T05:04:52.374Z,3.63
2018-02-10T05:05:18.478Z,3.73
2018-02-10T05:05:44.576Z,3.78
2018-02-10T05:06:10.678Z,3.68
2018-02-10T05:06:36.776Z,3.76
2018-02-10T05:07:02.876Z,3.77
2018-02-10T05:07:28.978Z,3.83
2018-02-10T05:07:55.076Z,3.86
2018-02-10T05:08:21.182Z,3.87
2018-02-10T05:08:47.278Z,3.94
2018-02-10T05:09:13.373Z,3.95
2018-02-10T05:09:39.471Z,3.99
2018-02-10T05:10:05.570Z,3.94
2018-02-10T05:10:31.673Z,3.73
2018-02-10T05:10:57.774Z,3.68
2018-02-10T05:11:23.872Z,3.58
2018-02-10T05:11:49.975Z,3.7
2018-02-10T05:12:16.075Z,3.77
2018-02-10T05:12:42.172Z,3.84
2018-02-10T05:13:08.289Z,3.69
2018-02-10T05:13:34.403Z,3.7
2018-02-10T05:14:00.496Z,3.65
2018-02-10T05:14:26.607Z,3.7
2018-02-10T05:14:52.716Z,3.65
2018-02-10T05:15:18.838Z,3.6
2018-02-10T05:15:44.952Z,3.65
2018-02-10T05:16:11.045Z,3.73
2018-02-10T05:16:37.146Z,3.78
2018-02-10T05:17:03.245Z,3.76
2018-02-10T05:17:29.343Z,3.68
2018-02-10T05:17:55.445Z,3.69
2018-02-10T05:18:21.547Z,3.77
2018-02-10T05:18:47.643Z,3.77
2018-02-10T05:19:13.742Z,3.73
2018-02-10T05:19:39.891Z,3.65
2018-02-10T05:20:05.942Z,3.77
2018-02-10T05:20:32.041Z,3.69
2018-02-10T05:20:58.138Z,3.63
2018-02-10T05:21:24.241Z,3.74
2018-02-10T05:21:50.341Z,3.62
2018-02-10T05:22:16.435Z,3.68
2018-02-10T05:22:42.570Z,3.6
2018-02-10T05:23:08.635Z,3.65
2018-02-10T05:23:34.737Z,3.65
2018-02-10T05:24:00.832Z,3.76
2018-02-10T05:24:26.928Z,3.7
2018-02-10T05:24:53.035Z,3.62
2018-02-10T05:25:19.127Z,3.6
2018-02-10T05:25:45.226Z,3.77
2018-02-10T05:26:11.343Z,3.83
2018-02-10T05:26:37.451Z,3.74
2018-02-10T05:27:03.543Z,3.81
2018-02-10T05:27:29.645Z,3.83
2018-02-10T05:27:55.739Z,3.8
2018-02-10T05:28:21.845Z,3.77
2018-02-10T05:28:47.960Z,3.87
2018-02-10T05:29:14.062Z,3.91
2018-02-10T05:29:40.157Z,3.94
2018-02-10T05:30:06.252Z,3.88
2018-02-10T05:30:32.353Z,3.94
2018-02-10T05:30:58.456Z,3.95
2018-02-10T05:31:24.558Z,3.98
2018-02-10T05:31:50.651Z,3.92
2018-02-10T05:32:16.753Z,4.04
2018-02-10T05:32:42.851Z,3.99
2018-02-10T05:33:08.946Z,4.04
2018-02-10T05:33:35.048Z,4.06
2018-02-10T05:34:01.144Z,4.05
2018-02-10T05:34:27.243Z,4.04
2018-02-10T05:34:53.342Z,4.05
2018-02-10T05:35:19.459Z,4.05
2018-02-10T05:35:45.555Z,4.17
2018-02-10T05:36:11.675Z,4.05
2018-02-10T05:36:37.777Z,4.02
2018-02-10T05:37:03.877Z,4.05
2018-02-10T05:37:29.980Z,3.98
2018-02-10T05:37:56.079Z,4.01
2018-02-10T05:38:22.181Z,3.91
2018-02-10T05:38:48.281Z,3.95
2018-02-10T05:39:14.377Z,3.98
2018-02-10T05:39:40.479Z,3.98
2018-02-10T05:40:06.578Z,3.86
2018-02-10T05:40:32.684Z,3.84
2018-02-10T05:40:58.781Z,3.95
2018-02-10T05:41:24.881Z,3.95
2018-02-10T05:41:50.994Z,3.92
2018-02-10T05:42:17.093Z,3.96
2018-02-10T05:42:43.215Z,4.08
2018-02-10T05:43:09.306Z,4.02
2018-02-10T05:43:35.407Z,4.08
2018-02-10T05:44:01.510Z,4.06
2018-02-10T05:44:27.639Z,4.02
2018-02-10T05:44:53.724Z,4.04
2018-02-10T05:45:19.818Z,4.05
2018-02-10T05:45:45.922Z,4.04
2018-02-10T05:46:12.022Z,4.01
2018-02-10T05:46:38.119Z,3.91
2018-02-10T05:47:04.216Z,3.92
2018-02-10T05:47:30.318Z,4.01
2018-02-10T05:47:56.416Z,3.99
2018-02-10T05:48:22.510Z,3.96
2018-02-10T05:48:48.616Z,4.01
2018-02-10T05:49:14.711Z,3.98